createdAt,value
2022-08-29T00:01:05.639Z,93.30
2022-08-29T00:05:09.077Z,93.50
2022-08-29T00:09:13.567Z,93.50
2022-08-29T00:13:16.662Z,93.60
2022-08-29T00:17:19.503Z,93.40
2022-08-29T00:21:22.394Z,93.20
2022-08-29T00:25:27.103Z,93.20
2022-08-29T00:29:29.923Z,93.10
2022-08-29T00:33:32.740Z,93.60
2022-08-29T00:37:36.080Z,93.40
2022-08-29T00:41:41.306Z,93.40
2022-08-29T00:45:46.688Z,93.60
2022-08-29T00:49:51.203Z,93.40
2022-08-29T00:53:55.213Z,93.40
2022-08-29T00:58:01.496Z,93.30
2022-08-29T01:02:05.243Z,93.40
2022-08-29T01:06:09.460Z,93.40
2022-08-29T01:10:32.443Z,93.20
2022-08-29T01:14:38.694Z,93.20
2022-08-29T01:18:43.885Z,94.00
2022-08-29T01:22:54.947Z,93.50
2022-08-29T01:26:59.396Z,93.30
2022-08-29T01:31:04.661Z,93.40
2022-08-29T01:35:08.687Z,93.30
2022-08-29T01:39:11.512Z,93.40
2022-08-29T01:43:15.719Z,93.50
2022-08-29T01:47:18.750Z,93.50
2022-08-29T01:51:21.619Z,93.30
2022-08-29T01:55:24.462Z,93.50
2022-08-29T01:59:29.486Z,93.60
2022-08-29T02:03:32.723Z,93.40
2022-08-29T02:07:35.554Z,93.30
2022-08-29T02:11:39.916Z,93.30
2022-08-29T02:15:44.316Z,93.10
2022-08-29T02:19:47.160Z,93.40
2022-08-29T02:23:50.912Z,93.60
2022-08-29T02:27:53.787Z,93.20
2022-08-29T02:31:57.998Z,93.70
2022-08-29T02:36:01.182Z,93.20
2022-08-29T02:40:04.867Z,93.30
2022-08-29T02:44:07.762Z,93.20
2022-08-29T02:48:12.622Z,93.20
2022-08-29T02:52:15.624Z,93.40
2022-08-29T02:56:18.468Z,93.60
2022-08-29T03:00:23.216Z,93.50
2022-08-29T03:04:27.436Z,93.70
2022-08-29T03:08:30.630Z,93.40
2022-08-29T03:12:33.474Z,93.30
2022-08-29T03:16:36.430Z,93.30
2022-08-29T03:20:41.520Z,93.40
2022-08-29T03:24:44.387Z,93.50
2022-08-29T03:28:47.210Z,93.40
2022-08-29T03:32:50.190Z,93.40
2022-08-29T03:36:54.566Z,93.50
2022-08-29T03:40:58.290Z,93.80
2022-08-29T03:45:03.133Z,93.60
2022-08-29T03:49:08.278Z,93.60
2022-08-29T03:53:12.674Z,93.80
2022-08-29T03:57:15.591Z,94.10
2022-08-29T04:01:19.291Z,94.60
2022-08-29T04:05:22.803Z,95.70
2022-08-29T04:09:27.020Z,94.80
2022-08-29T04:13:30.074Z,96.90
2022-08-29T04:17:32.870Z,99.50
2022-08-29T04:21:35.727Z,96.50
2022-08-29T04:25:40.771Z,97.70
2022-08-29T04:29:43.657Z,98.20
2022-08-29T04:33:47.002Z,96.90
2022-08-29T04:37:49.965Z,96.80
2022-08-29T04:41:54.249Z,96.80
2022-08-29T04:45:57.421Z,96.30
2022-08-29T04:50:00.313Z,96.10
2022-08-29T04:54:03.547Z,96.10
2022-08-29T04:58:10.155Z,96.10
2022-08-29T05:02:13.263Z,96.10
2022-08-29T05:06:16.751Z,95.90
2022-08-29T05:10:21.882Z,95.80
2022-08-29T05:14:26.419Z,96.10
2022-08-29T05:18:29.268Z,95.80
2022-08-29T05:22:32.135Z,95.80
2022-08-29T05:26:36.128Z,96.30
2022-08-29T05:30:40.493Z,97.70
2022-08-29T05:34:45.722Z,97.60
2022-08-29T05:38:48.516Z,98.70
2022-08-29T05:42:51.374Z,98.80
2022-08-29T05:46:55.551Z,99.50
2022-08-29T05:50:58.411Z,99.40
2022-08-29T05:55:02.117Z,99.90
2022-08-29T05:59:07.277Z,98.70
2022-08-29T06:03:11.781Z,98.80
2022-08-29T06:07:14.784Z,98.40
2022-08-29T06:11:18.175Z,98.00
2022-08-29T06:15:21.123Z,97.90
2022-08-29T06:19:25.621Z,99.10
2022-08-29T06:23:28.426Z,98.20
2022-08-29T06:27:32.961Z,98.60
2022-08-29T06:31:35.800Z,98.00
2022-08-29T06:35:40.076Z,99.10
2022-08-29T06:39:42.931Z,98.80
2022-08-29T06:43:45.825Z,98.10
2022-08-29T06:47:48.691Z,98.40
2022-08-29T06:51:57.714Z,99.90
2022-08-29T06:56:04.763Z,98.30
2022-08-29T07:00:12.585Z,98.20
2022-08-29T07:04:26.403Z,99.90
2022-08-29T07:08:30.966Z,99.00
2022-08-29T07:12:33.882Z,98.90
2022-08-29T07:16:37.336Z,99.00
2022-08-29T07:20:40.646Z,98.70
2022-08-29T07:24:44.887Z,99.90
2022-08-29T07:32:50.980Z,98.90
2022-08-29T07:36:53.847Z,99.70
2022-08-29T07:41:01.638Z,99.30
2022-08-29T07:45:04.858Z,99.50
2022-08-29T07:49:08.266Z,99.10
2022-08-29T07:53:11.131Z,99.50
2022-08-29T07:57:17.124Z,99.90
2022-08-29T08:01:21.512Z,99.90
2022-08-29T08:05:24.692Z,99.90
2022-08-29T08:09:27.771Z,99.90
2022-08-29T08:13:31.998Z,99.90
2022-08-29T08:17:34.906Z,99.90
2022-08-29T08:21:37.865Z,99.90
2022-08-29T08:25:49.932Z,99.90
2022-08-29T08:29:54.184Z,99.90
2022-08-29T08:33:58.403Z,99.90
2022-08-29T08:38:01.969Z,99.90
2022-08-29T08:42:06.672Z,99.90
2022-08-29T08:46:10.939Z,99.90
2022-08-29T08:50:17.693Z,99.90
2022-08-29T08:54:25.018Z,99.90
2022-08-29T08:58:31.829Z,99.90
2022-08-29T09:02:38.527Z,99.90
2022-08-29T09:06:50.642Z,99.90
2022-08-29T09:10:59.072Z,99.90
2022-08-29T09:15:05.256Z,99.90
2022-08-29T09:19:11.008Z,99.90
2022-08-29T09:23:20.485Z,99.90
2022-08-29T09:27:24.753Z,99.90
2022-08-29T09:31:28.756Z,99.90
2022-08-29T09:35:37.066Z,99.90
2022-08-29T09:39:39.930Z,99.90
2022-08-29T09:43:48.092Z,99.90
2022-08-29T09:48:08.267Z,99.90
2022-08-29T09:52:14.330Z,99.90
2022-08-29T09:56:19.667Z,99.90
2022-08-29T10:00:26.332Z,99.90
2022-08-29T10:04:39.827Z,99.90
2022-08-29T10:08:55.654Z,99.90
2022-08-29T10:13:02.176Z,99.90
2022-08-29T10:17:20.830Z,99.90
2022-08-29T10:21:30.145Z,99.90
2022-08-29T10:25:36.650Z,99.90
2022-08-29T10:29:56.249Z,99.90
2022-08-29T10:34:06.825Z,99.90
2022-08-29T10:38:17.159Z,99.90
2022-08-29T10:42:24.091Z,99.90
2022-08-29T10:46:37.188Z,99.90
2022-08-29T10:50:44.992Z,99.90
2022-08-29T10:54:53.952Z,99.90
2022-08-29T10:59:03.792Z,99.90
2022-08-29T11:03:09.737Z,99.90
2022-08-29T11:07:16.256Z,99.90
2022-08-29T11:11:20.584Z,99.90
2022-08-29T11:15:27.590Z,99.90
2022-08-29T11:19:31.994Z,99.90
2022-08-29T11:23:39.478Z,99.90
2022-08-29T11:27:47.559Z,99.90
2022-08-29T11:32:00.034Z,99.90
2022-08-29T11:36:12.116Z,99.90
2022-08-29T11:40:47.314Z,99.90
2022-08-29T11:44:46.083Z,99.90
2022-08-29T11:48:55.798Z,99.90
2022-08-29T11:53:06.598Z,99.90
2022-08-29T11:57:28.243Z,99.90
2022-08-29T12:01:49.961Z,99.90
2022-08-29T12:06:01.766Z,99.90
2022-08-29T12:10:06.531Z,99.90
2022-08-29T12:14:09.426Z,99.90
2022-08-29T12:18:42.394Z,99.90
2022-08-29T12:22:48.422Z,99.90
2022-08-29T12:26:51.471Z,99.90
2022-08-29T12:31:04.820Z,99.90
2022-08-29T12:35:15.088Z,99.90
2022-08-29T12:39:26.978Z,99.90
2022-08-29T12:43:35.273Z,99.90
2022-08-29T12:47:44.002Z,99.60
2022-08-29T12:51:49.910Z,99.90
2022-08-29T12:55:55.568Z,99.90
2022-08-29T12:59:59.268Z,99.50
2022-08-29T13:04:04.027Z,99.50
2022-08-29T13:08:11.105Z,98.80
2022-08-29T13:12:19.598Z,99.00
2022-08-29T13:16:26.959Z,98.40
2022-08-29T13:20:45.352Z,97.60
2022-08-29T13:24:48.147Z,96.30
2022-08-29T13:28:53.303Z,98.30
2022-08-29T13:32:56.180Z,96.80
2022-08-29T13:37:00.983Z,97.20
2022-08-29T13:41:03.846Z,96.90
2022-08-29T13:45:12.739Z,96.00
2022-08-29T13:49:20.067Z,96.50
2022-08-29T13:57:40.338Z,96.60
2022-08-29T14:02:13.972Z,97.00
2022-08-29T14:06:17.954Z,97.20
2022-08-29T14:10:21.845Z,96.50
2022-08-29T14:14:24.986Z,96.60
2022-08-29T14:18:29.276Z,97.70
2022-08-29T14:22:35.999Z,97.90
2022-08-29T14:26:39.010Z,97.80
2022-08-29T14:30:42.069Z,97.60
2022-08-29T14:34:56.270Z,97.20
2022-08-29T14:38:59.529Z,97.00
2022-08-29T14:43:03.203Z,97.20
2022-08-29T14:47:06.222Z,96.00
2022-08-29T14:51:12.872Z,96.40
2022-08-29T14:55:15.853Z,96.50
2022-08-29T14:59:18.952Z,96.50
2022-08-29T15:03:21.823Z,96.00
2022-08-29T15:07:26.051Z,96.10
2022-08-29T15:11:31.099Z,96.40
2022-08-29T15:15:34.267Z,96.30
2022-08-29T15:20:18.112Z,95.80
2022-08-29T15:24:02.289Z,96.10
2022-08-29T15:28:06.513Z,95.70
2022-08-29T15:32:09.644Z,96.30
2022-08-29T15:36:12.475Z,95.90
2022-08-29T15:40:16.689Z,96.00
2022-08-29T15:44:19.606Z,96.40
2022-08-29T15:48:22.480Z,96.60
2022-08-29T15:52:25.579Z,97.50
2022-08-29T15:56:35.049Z,97.50
2022-08-29T16:00:38.039Z,96.80
2022-08-29T16:04:44.767Z,97.30
2022-08-29T16:08:47.890Z,98.20
2022-08-29T16:12:59.474Z,94.70
2022-08-29T16:17:02.561Z,95.90
2022-08-29T16:21:05.611Z,94.90
2022-08-29T16:25:09.150Z,93.80
2022-08-29T16:29:13.277Z,92.80
2022-08-29T16:33:16.152Z,92.60
2022-08-29T16:37:19.075Z,92.60
2022-08-29T16:41:22.976Z,92.80
2022-08-29T16:45:27.380Z,93.20
2022-08-29T16:49:30.306Z,94.00
2022-08-29T16:53:36.725Z,94.20
2022-08-29T17:45:10.986Z,95.00
2022-08-29T17:49:17.769Z,95.10
2022-08-29T17:53:21.200Z,95.10
2022-08-29T17:57:26.041Z,95.20
2022-08-29T18:01:32.502Z,95.20
2022-08-29T18:05:35.490Z,95.20
2022-08-29T18:09:38.364Z,95.30
2022-08-29T18:13:41.767Z,95.30
2022-08-29T18:17:46.183Z,95.20
2022-08-29T18:21:49.834Z,95.20
2022-08-29T18:25:52.738Z,95.30
2022-08-29T18:29:57.714Z,95.30
2022-08-29T18:34:02.439Z,95.50
2022-08-29T18:38:05.299Z,95.70
2022-08-29T18:42:20.256Z,95.50
2022-08-29T18:46:31.363Z,95.70
2022-08-29T18:50:35.546Z,95.90
2022-08-29T18:54:38.416Z,95.90
2022-08-29T18:58:44.288Z,95.80
2022-08-29T19:02:47.250Z,95.90
2022-08-29T19:06:51.412Z,95.90
2022-08-29T19:10:55.600Z,95.80
2022-08-29T19:14:59.612Z,96.00
2022-08-29T19:19:02.437Z,96.00
2022-08-29T19:23:07.336Z,96.00
2022-08-29T19:27:21.832Z,96.10
2022-08-29T19:31:33.618Z,96.10
2022-08-29T19:35:38.009Z,96.30
2022-08-29T19:39:42.167Z,96.30
2022-08-29T19:43:45.419Z,96.40
2022-08-29T19:47:49.426Z,96.40
2022-08-29T19:51:53.228Z,96.50
2022-08-29T19:55:57.559Z,96.40
2022-08-29T20:00:01.384Z,96.20
2022-08-29T20:04:04.579Z,96.30
2022-08-29T20:08:07.414Z,96.30
2022-08-29T20:12:12.011Z,96.70
2022-08-29T20:16:16.854Z,96.40
2022-08-29T20:20:22.012Z,96.40
2022-08-29T20:24:25.118Z,96.60
2022-08-29T20:28:30.468Z,96.40
2022-08-29T20:32:33.433Z,96.40
2022-08-29T20:36:53.650Z,96.50
2022-08-29T20:40:56.463Z,96.40
2022-08-29T20:45:00.736Z,96.40
2022-08-29T20:49:03.575Z,96.50
2022-08-29T20:53:06.772Z,96.40
2022-08-29T20:57:10.232Z,96.50
2022-08-29T21:01:17.176Z,96.40
2022-08-29T21:05:37.730Z,96.40
2022-08-29T21:09:43.283Z,96.50
2022-08-29T21:13:46.706Z,96.50
2022-08-29T21:17:52.295Z,96.70
2022-08-29T21:21:55.316Z,96.50
2022-08-29T21:25:59.915Z,96.50
2022-08-29T21:30:02.772Z,97.00
2022-08-29T21:34:08.605Z,96.80
2022-08-29T21:38:12.710Z,96.80
2022-08-29T21:42:15.593Z,96.90
2022-08-29T21:46:18.894Z,97.10
2022-08-29T21:50:24.123Z,96.80
2022-08-29T21:54:27.072Z,96.80
2022-08-29T21:58:36.683Z,96.70
2022-08-29T22:02:40.214Z,96.70
2022-08-29T22:06:45.024Z,96.90
2022-08-29T22:10:48.481Z,96.90
2022-08-29T22:15:08.947Z,97.00
2022-08-29T22:19:12.894Z,96.90
2022-08-29T22:23:17.720Z,96.70
2022-08-29T22:27:22.932Z,96.50
2022-08-29T22:31:26.014Z,96.90
2022-08-29T22:35:29.067Z,96.50
2022-08-29T22:39:33.365Z,96.90
2022-08-29T22:43:42.579Z,97.00
2022-08-29T22:47:45.808Z,96.90
2022-08-29T22:51:49.062Z,96.90
2022-08-29T22:55:53.255Z,97.30
2022-08-29T22:59:56.107Z,96.90
2022-08-29T23:03:59.739Z,97.30
2022-08-29T23:08:02.563Z,97.30
2022-08-29T23:12:07.515Z,97.30
2022-08-29T23:16:10.396Z,97.60
2022-08-29T23:20:14.313Z,97.50
2022-08-29T23:24:17.160Z,97.50
2022-08-29T23:28:21.338Z,97.30
2022-08-29T23:32:26.224Z,97.30
2022-08-29T23:36:29.022Z,97.30
2022-08-29T23:40:31.886Z,97.30
2022-08-29T23:44:36.548Z,97.30
2022-08-29T23:48:39.368Z,97.40
2022-08-29T23:52:46.079Z,97.80
2022-08-29T23:56:48.932Z,97.60
